createdAt,value
2019-01-21T00:00:24.620Z,96.50
2019-01-21T00:02:28.760Z,91.50
2019-01-21T00:03:28.990Z,89.10
2019-01-21T00:05:33.152Z,90.40
2019-01-21T00:06:33.385Z,84.50
2019-01-21T00:08:37.540Z,82.30
2019-01-21T00:09:37.759Z,75.80
2019-01-21T00:11:41.918Z,66.30
2019-01-21T00:12:42.152Z,72.20
2019-01-21T00:14:46.319Z,81.60
2019-01-21T00:15:46.571Z,77.70
2019-01-21T00:17:50.690Z,74.30
2019-01-21T00:18:50.924Z,77.90
2019-01-21T00:20:55.087Z,73.50
2019-01-21T00:21:55.319Z,76.30
2019-01-21T00:23:59.458Z,80.50
2019-01-21T00:24:59.694Z,77.70
2019-01-21T00:27:03.855Z,77.80
2019-01-21T00:28:04.089Z,71.70
2019-01-21T00:30:08.288Z,67.10
2019-01-21T00:31:08.489Z,65.90
2019-01-21T00:33:12.624Z,64.60
2019-01-21T00:34:12.858Z,65.50
2019-01-21T00:36:05.946Z,70.30
2019-01-21T00:37:06.182Z,69.10
2019-01-21T00:39:10.320Z,69.00
2019-01-21T00:40:10.552Z,70.70
2019-01-21T00:42:14.714Z,69.20
2019-01-21T00:43:15.010Z,68.20
2019-01-21T00:45:19.111Z,70.30
2019-01-21T00:46:19.351Z,71.60
2019-01-21T00:48:23.484Z,66.90
2019-01-21T00:49:23.718Z,68.80
2019-01-21T00:51:27.873Z,73.20
2019-01-21T00:52:28.119Z,68.40
2019-01-21T00:54:32.272Z,66.10
2019-01-21T00:55:32.497Z,63.10
2019-01-21T00:57:36.656Z,62.70
2019-01-21T00:58:36.888Z,66.00
2019-01-21T01:00:41.057Z,65.50
2019-01-21T01:01:41.290Z,61.90
2019-01-21T01:03:45.430Z,63.90
2019-01-21T01:04:45.656Z,66.90
2019-01-21T01:06:49.822Z,66.90
2019-01-21T01:07:50.056Z,62.90
2019-01-21T01:09:54.193Z,64.20
2019-01-21T01:10:54.430Z,66.80
2019-01-21T01:12:58.588Z,64.80
2019-01-21T01:13:58.821Z,60.00
2019-01-21T01:15:51.922Z,59.80
2019-01-21T01:16:52.155Z,58.40
2019-01-21T01:18:56.340Z,62.50
2019-01-21T01:19:56.532Z,62.00
2019-01-21T01:22:00.694Z,60.30
2019-01-21T01:23:00.931Z,58.50
2019-01-21T01:25:06.090Z,56.70
2019-01-21T01:26:06.324Z,53.90
2019-01-21T01:28:10.484Z,54.80
2019-01-21T01:29:10.718Z,53.50
2019-01-21T01:31:14.853Z,56.30
2019-01-21T01:32:15.090Z,59.10
2019-01-21T01:34:19.245Z,57.90
2019-01-21T01:35:19.480Z,58.20
2019-01-21T01:37:23.638Z,56.80
2019-01-21T01:38:23.880Z,56.50
2019-01-21T01:40:28.011Z,57.50
2019-01-21T01:41:28.243Z,56.00
2019-01-21T01:43:32.411Z,61.90
2019-01-21T01:44:32.641Z,56.50
2019-01-21T01:46:25.723Z,54.50
2019-01-21T01:47:25.951Z,57.30
2019-01-21T01:49:30.118Z,54.50
2019-01-21T01:50:30.355Z,53.70
2019-01-21T01:52:34.524Z,54.30
2019-01-21T01:53:34.756Z,53.90
2019-01-21T01:55:38.897Z,49.30
2019-01-21T01:56:39.127Z,56.20
2019-01-21T01:58:43.286Z,50.90
2019-01-21T01:59:43.519Z,52.30
2019-01-21T02:01:47.662Z,53.80
2019-01-21T02:02:47.892Z,55.00
2019-01-21T02:04:52.053Z,56.40
2019-01-21T02:05:52.287Z,51.40
2019-01-21T02:07:56.443Z,50.20
2019-01-21T02:08:56.683Z,55.30
2019-01-21T02:11:00.819Z,58.20
2019-01-21T02:12:01.056Z,54.70
2019-01-21T02:14:05.215Z,55.00
2019-01-21T02:15:05.445Z,57.60
2019-01-21T02:17:09.582Z,67.10
2019-01-21T02:18:09.817Z,67.70
2019-01-21T02:20:13.973Z,57.00
2019-01-21T02:21:14.205Z,55.30
2019-01-21T02:23:18.366Z,52.10
2019-01-21T02:24:18.599Z,52.40
2019-01-21T02:26:11.666Z,49.40
2019-01-21T02:27:11.900Z,49.20
2019-01-21T02:29:16.056Z,50.60
2019-01-21T02:30:16.290Z,45.40
2019-01-21T02:32:20.434Z,45.90
2019-01-21T02:33:20.664Z,47.10
2019-01-21T02:35:24.818Z,45.30
2019-01-21T02:36:25.052Z,47.10
2019-01-21T02:38:29.197Z,50.60
2019-01-21T02:39:29.423Z,48.40
2019-01-21T02:41:33.581Z,46.40
2019-01-21T02:42:33.818Z,44.00
2019-01-21T02:44:38.985Z,45.00
2019-01-21T02:45:39.219Z,42.30
2019-01-21T02:47:43.354Z,43.20
2019-01-21T02:48:43.584Z,43.10
2019-01-21T02:50:47.751Z,43.70
2019-01-21T02:51:47.980Z,44.70
2019-01-21T02:53:52.128Z,46.40
2019-01-21T02:54:52.352Z,46.20
2019-01-21T02:56:56.510Z,48.10
2019-01-21T02:57:56.742Z,49.70
2019-01-21T03:00:00.922Z,48.70
2019-01-21T03:01:01.146Z,46.10
2019-01-21T03:03:05.286Z,46.60
2019-01-21T03:04:05.521Z,53.80
2019-01-21T03:05:58.611Z,53.70
2019-01-21T03:06:58.842Z,50.20
2019-01-21T03:09:02.978Z,48.00
2019-01-21T03:10:03.211Z,50.60
2019-01-21T03:12:07.369Z,52.10
2019-01-21T03:13:07.602Z,58.50
2019-01-21T03:15:11.763Z,50.30
2019-01-21T03:16:11.996Z,50.50
2019-01-21T03:18:16.169Z,47.00
2019-01-21T03:19:16.387Z,48.60
2019-01-21T03:21:20.545Z,64.30
2019-01-21T03:22:20.780Z,52.50
2019-01-21T03:24:24.910Z,56.40
2019-01-21T03:25:25.143Z,51.40
2019-01-21T03:27:29.301Z,52.80
2019-01-21T03:28:29.533Z,49.20
2019-01-21T03:30:33.681Z,49.60
2019-01-21T03:31:33.917Z,49.70
2019-01-21T03:33:38.069Z,49.80
2019-01-21T03:34:38.300Z,47.80
2019-01-21T03:36:31.394Z,47.90
2019-01-21T03:37:31.621Z,49.10
2019-01-21T03:39:35.769Z,48.10
2019-01-21T03:40:35.990Z,48.90
2019-01-21T03:42:40.153Z,49.90
2019-01-21T03:43:40.385Z,50.40
2019-01-21T03:45:44.524Z,56.40
2019-01-21T03:46:44.758Z,50.70
2019-01-21T03:48:48.919Z,51.70
2019-01-21T03:49:49.153Z,51.50
2019-01-21T03:51:53.319Z,53.60
2019-01-21T03:52:53.547Z,49.60
2019-01-21T03:54:57.694Z,50.20
2019-01-21T03:55:57.934Z,51.00
2019-01-21T03:58:02.093Z,47.90
2019-01-21T03:59:02.325Z,48.50
2019-01-21T04:01:06.459Z,48.60
2019-01-21T04:02:06.694Z,50.00
2019-01-21T04:04:10.860Z,51.00
2019-01-21T04:05:11.097Z,52.70
2019-01-21T04:07:15.249Z,50.40
2019-01-21T04:08:15.480Z,49.90
2019-01-21T04:10:19.623Z,50.00
2019-01-21T04:11:19.855Z,45.40
2019-01-21T04:13:24.018Z,46.00
2019-01-21T04:14:24.251Z,49.50
2019-01-21T04:16:17.318Z,51.20
2019-01-21T04:17:17.559Z,50.50
2019-01-21T04:19:21.710Z,47.00
2019-01-21T04:20:21.943Z,50.00
2019-01-21T04:22:26.107Z,51.80
2019-01-21T04:23:26.335Z,47.40
2019-01-21T04:25:30.486Z,47.30
2019-01-21T04:26:30.708Z,49.50
2019-01-21T04:28:34.876Z,46.90
2019-01-21T04:29:35.109Z,49.90
2019-01-21T04:31:39.247Z,52.90
2019-01-21T04:32:39.483Z,53.40
2019-01-21T04:34:43.652Z,49.30
2019-01-21T04:35:43.886Z,52.00
2019-01-21T04:37:48.052Z,47.70
2019-01-21T04:38:48.284Z,49.60
2019-01-21T04:40:52.428Z,48.60
2019-01-21T04:41:52.662Z,50.60
2019-01-21T04:43:56.828Z,49.50
2019-01-21T04:44:57.064Z,47.10
2019-01-21T04:47:01.207Z,48.20
2019-01-21T04:48:01.434Z,48.20
2019-01-21T04:50:05.600Z,48.40
2019-01-21T04:51:05.832Z,44.20
2019-01-21T04:53:09.992Z,48.60
2019-01-21T04:54:10.223Z,46.20
2019-01-21T04:56:03.303Z,49.20
2019-01-21T04:57:03.538Z,52.50
2019-01-21T04:59:07.702Z,48.40
2019-01-21T05:00:07.982Z,49.90
2019-01-21T05:02:13.124Z,48.60
2019-01-21T05:03:13.352Z,48.80
2019-01-21T05:05:17.516Z,45.10
2019-01-21T05:06:17.754Z,46.30
2019-01-21T05:08:21.932Z,47.70
2019-01-21T05:09:22.171Z,45.30
2019-01-21T05:11:26.311Z,43.70
2019-01-21T05:12:26.561Z,45.60
2019-01-21T05:14:30.708Z,42.40
2019-01-21T05:15:30.943Z,44.10
2019-01-21T05:17:35.082Z,45.70
2019-01-21T05:18:41.161Z,51.00
2019-01-21T05:20:39.481Z,47.60
2019-01-21T05:21:39.718Z,47.60
2019-01-21T05:23:43.896Z,50.70
2019-01-21T05:24:44.134Z,48.80
2019-01-21T05:26:48.272Z,44.70
2019-01-21T05:27:48.508Z,48.30
2019-01-21T05:29:52.666Z,48.40
2019-01-21T05:30:52.904Z,46.20
2019-01-21T05:32:57.043Z,44.30
2019-01-21T05:33:57.280Z,45.70
2019-01-21T05:35:50.364Z,46.10
2019-01-21T05:36:50.610Z,46.90
2019-01-21T05:38:54.737Z,43.80
2019-01-21T05:39:54.971Z,47.60
2019-01-21T05:41:59.127Z,47.90
2019-01-21T05:42:59.359Z,50.40
2019-01-21T05:45:03.526Z,47.20
2019-01-21T05:46:03.761Z,48.80
2019-01-21T05:48:07.901Z,49.30
2019-01-21T05:49:08.132Z,47.30
2019-01-21T05:51:12.293Z,46.10
2019-01-21T05:52:12.525Z,45.40
2019-01-21T05:54:16.699Z,48.00
2019-01-21T05:55:17.070Z,43.20
2019-01-21T05:57:21.214Z,47.70
2019-01-21T05:58:21.450Z,46.30
2019-01-21T06:00:25.600Z,46.20
2019-01-21T06:01:25.831Z,47.70
2019-01-21T06:03:29.964Z,47.50
2019-01-21T06:04:30.197Z,47.80
2019-01-21T06:06:23.277Z,47.50
2019-01-21T06:07:23.515Z,46.90
2019-01-21T06:09:28.700Z,50.10
2019-01-21T06:10:28.940Z,48.30
2019-01-21T06:12:33.071Z,48.50
2019-01-21T06:13:33.302Z,53.00
2019-01-21T06:15:37.465Z,44.70
2019-01-21T06:16:37.702Z,43.50
2019-01-21T06:18:41.840Z,48.20
2019-01-21T06:19:42.070Z,45.90
2019-01-21T06:21:46.234Z,45.30
2019-01-21T06:22:46.460Z,43.50
2019-01-21T06:24:51.643Z,49.00
2019-01-21T06:25:51.878Z,49.20
2019-01-21T06:27:57.026Z,46.70
2019-01-21T06:28:57.259Z,47.40
2019-01-21T06:31:01.420Z,45.60
2019-01-21T06:32:01.666Z,45.40
2019-01-21T06:34:05.795Z,46.90
2019-01-21T06:35:06.028Z,45.90
2019-01-21T06:37:10.190Z,48.90
2019-01-21T06:38:10.424Z,47.20
2019-01-21T06:40:14.600Z,43.70
2019-01-21T06:41:14.831Z,44.10
2019-01-21T06:43:18.972Z,45.80
2019-01-21T06:44:19.223Z,46.00
2019-01-21T06:46:12.307Z,47.60
2019-01-21T06:47:12.538Z,45.70
2019-01-21T06:49:16.671Z,46.60
2019-01-21T06:50:16.916Z,46.00
2019-01-21T06:52:21.063Z,48.80
2019-01-21T06:53:21.295Z,42.90
2019-01-21T06:55:25.439Z,43.70
2019-01-21T06:56:25.673Z,46.10
2019-01-21T06:58:29.836Z,44.60
2019-01-21T06:59:30.070Z,45.40
2019-01-21T07:01:34.248Z,46.10
2019-01-21T07:02:35.200Z,46.90
2019-01-21T07:04:38.642Z,47.70
2019-01-21T07:05:38.881Z,48.80
2019-01-21T07:07:43.015Z,49.30
2019-01-21T07:08:43.250Z,46.80
2019-01-21T07:10:47.414Z,49.30
2019-01-21T07:11:47.651Z,46.90
2019-01-21T07:13:51.789Z,49.20
2019-01-21T07:14:52.026Z,48.60
2019-01-21T07:16:56.186Z,43.00
2019-01-21T07:17:56.420Z,44.40
2019-01-21T07:20:00.594Z,45.30
2019-01-21T07:21:00.815Z,46.90
2019-01-21T07:23:04.957Z,47.50
2019-01-21T07:24:05.187Z,43.90
2019-01-21T07:25:58.274Z,46.30
2019-01-21T07:26:58.508Z,44.60
2019-01-21T07:29:02.649Z,46.10
2019-01-21T07:30:04.303Z,46.50
2019-01-21T07:32:07.047Z,45.00
2019-01-21T07:33:07.280Z,47.10
2019-01-21T07:35:11.446Z,47.80
2019-01-21T07:36:11.680Z,46.70
2019-01-21T07:38:15.830Z,46.80
2019-01-21T07:39:16.069Z,49.20
2019-01-21T07:41:20.219Z,50.60
2019-01-21T07:42:20.447Z,48.50
2019-01-21T07:44:24.589Z,48.70
2019-01-21T07:45:24.819Z,48.60
2019-01-21T07:47:28.980Z,50.10
2019-01-21T07:48:29.211Z,47.80
2019-01-21T07:50:33.384Z,47.80
2019-01-21T07:51:33.615Z,46.00
2019-01-21T07:53:37.755Z,49.30
2019-01-21T07:54:37.986Z,45.40
2019-01-21T07:56:31.087Z,46.80
2019-01-21T07:57:31.307Z,46.30
2019-01-21T07:59:35.441Z,46.40
2019-01-21T08:00:35.676Z,46.60
2019-01-21T08:02:39.835Z,48.20
2019-01-21T08:03:40.067Z,49.90
2019-01-21T08:05:45.238Z,48.00
2019-01-21T08:06:45.488Z,47.60
2019-01-21T08:08:49.608Z,50.30
2019-01-21T08:09:49.839Z,50.40
2019-01-21T08:11:55.013Z,49.70
2019-01-21T08:12:55.244Z,48.60
2019-01-21T08:14:59.381Z,47.00
2019-01-21T08:15:59.612Z,50.80
2019-01-21T08:18:03.770Z,46.30
2019-01-21T08:19:04.002Z,44.80
2019-01-21T08:21:08.157Z,44.90
2019-01-21T08:22:08.387Z,49.40
2019-01-21T08:24:12.530Z,47.70
2019-01-21T08:25:12.756Z,47.70
2019-01-21T08:27:16.919Z,45.60
2019-01-21T08:28:17.286Z,47.10
2019-01-21T08:30:21.323Z,48.10
2019-01-21T08:31:21.565Z,48.60
2019-01-21T08:33:25.730Z,48.50
2019-01-21T08:34:25.965Z,47.90
2019-01-21T08:36:19.053Z,48.50
2019-01-21T08:37:19.281Z,47.10
2019-01-21T08:39:23.419Z,43.20
2019-01-21T08:40:23.651Z,48.70
2019-01-21T08:42:27.810Z,45.00
2019-01-21T08:43:28.036Z,44.60
2019-01-21T08:45:32.176Z,45.50
2019-01-21T08:46:32.409Z,47.50
2019-01-21T08:48:36.583Z,48.90
2019-01-21T08:49:36.802Z,47.90
2019-01-21T08:51:40.961Z,48.10
2019-01-21T08:52:41.192Z,45.70
2019-01-21T08:54:45.351Z,46.30
2019-01-21T08:55:45.567Z,46.00
2019-01-21T08:57:49.725Z,46.70
2019-01-21T08:58:49.954Z,46.70
2019-01-21T09:00:54.092Z,46.90
2019-01-21T09:01:54.323Z,47.10
2019-01-21T09:03:58.485Z,45.20
2019-01-21T09:04:58.716Z,44.10
2019-01-21T09:07:02.878Z,44.70
2019-01-21T09:08:03.108Z,46.40
2019-01-21T09:10:07.251Z,44.40
2019-01-21T09:11:07.485Z,45.80
2019-01-21T09:13:11.645Z,47.90
2019-01-21T09:14:11.874Z,48.70
2019-01-21T09:16:04.939Z,50.90
2019-01-21T09:17:05.170Z,45.90
2019-01-21T09:19:09.337Z,48.40
2019-01-21T09:20:10.886Z,45.70
2019-01-21T09:22:13.735Z,45.40
2019-01-21T09:23:13.971Z,47.70
2019-01-21T09:25:18.111Z,45.20
2019-01-21T09:26:18.343Z,47.70
2019-01-21T09:28:22.505Z,43.30
2019-01-21T09:29:22.738Z,46.10
2019-01-21T09:31:26.878Z,44.10
2019-01-21T09:32:27.110Z,45.20
2019-01-21T09:34:31.273Z,43.20
2019-01-21T09:35:31.504Z,57.70
2019-01-21T09:37:35.687Z,48.30
2019-01-21T09:38:35.926Z,50.00
2019-01-21T09:40:40.063Z,46.40
2019-01-21T09:41:40.296Z,44.00
2019-01-21T09:43:44.460Z,52.10
2019-01-21T09:44:44.697Z,50.90
2019-01-21T09:46:48.838Z,48.10
2019-01-21T09:47:49.072Z,47.30
2019-01-21T09:49:53.235Z,43.90
2019-01-21T09:50:53.467Z,41.00
2019-01-21T09:52:57.649Z,36.50
2019-01-21T09:53:57.887Z,37.40
2019-01-21T09:55:50.953Z,38.90
2019-01-21T09:56:51.187Z,39.40
2019-01-21T09:58:55.355Z,39.30
2019-01-21T09:59:55.590Z,38.10
2019-01-21T10:01:59.735Z,37.00
2019-01-21T10:02:59.972Z,34.80
2019-01-21T10:05:04.141Z,29.40
2019-01-21T10:06:04.374Z,28.70
2019-01-21T10:08:08.520Z,31.10
2019-01-21T10:09:08.753Z,34.00
2019-01-21T10:11:12.918Z,36.20
2019-01-21T10:12:13.154Z,40.10
2019-01-21T10:14:17.317Z,35.60
2019-01-21T10:15:17.553Z,35.00
2019-01-21T10:17:21.712Z,28.80
2019-01-21T10:18:21.945Z,30.80
2019-01-21T10:20:26.113Z,31.70
2019-01-21T10:21:26.346Z,32.80
2019-01-21T10:23:30.516Z,31.00
2019-01-21T10:24:30.752Z,28.00
2019-01-21T10:26:23.829Z,30.70
2019-01-21T10:27:24.063Z,32.10
2019-01-21T10:29:28.240Z,25.50
2019-01-21T10:30:28.467Z,22.00
2019-01-21T10:32:32.626Z,20.00
2019-01-21T10:33:34.117Z,21.80
2019-01-21T10:35:37.038Z,19.70
2019-01-21T10:36:37.281Z,26.20
2019-01-21T10:38:41.438Z,21.00
2019-01-21T10:39:41.676Z,19.90
2019-01-21T10:41:45.857Z,19.50
2019-01-21T10:42:46.098Z,19.60
2019-01-21T10:44:50.274Z,19.40
2019-01-21T10:45:50.516Z,17.90
2019-01-21T10:47:54.694Z,17.00
2019-01-21T10:48:54.928Z,17.90
2019-01-21T10:50:59.107Z,26.20
2019-01-21T10:51:59.347Z,22.80
2019-01-21T10:54:03.511Z,15.90
2019-01-21T10:55:03.753Z,16.10
2019-01-21T10:57:08.955Z,15.00
2019-01-21T10:58:09.198Z,15.10
2019-01-21T11:00:13.386Z,15.40
2019-01-21T11:01:13.630Z,18.30
2019-01-21T11:03:17.800Z,14.90
2019-01-21T11:04:18.047Z,16.00
2019-01-21T11:06:11.170Z,15.70
2019-01-21T11:07:11.417Z,14.90
2019-01-21T11:09:15.586Z,15.20
2019-01-21T11:10:15.832Z,14.60
2019-01-21T11:12:20.027Z,13.80
2019-01-21T11:13:20.275Z,14.80
2019-01-21T11:15:25.477Z,14.60
2019-01-21T11:16:25.721Z,14.40
2019-01-21T11:18:29.893Z,14.60
2019-01-21T11:19:30.141Z,14.30
2019-01-21T11:21:34.340Z,18.90
2019-01-21T11:22:34.585Z,15.80
2019-01-21T11:24:38.763Z,17.40
2019-01-21T11:25:39.011Z,15.30
2019-01-21T11:27:43.204Z,17.60
2019-01-21T11:28:43.450Z,18.40
2019-01-21T11:30:48.658Z,15.50
2019-01-21T11:31:48.903Z,15.90
2019-01-21T11:33:53.076Z,16.30
2019-01-21T11:34:53.323Z,16.90
2019-01-21T11:36:57.520Z,14.90
2019-01-21T11:37:57.770Z,16.80
2019-01-21T11:40:01.944Z,15.80
2019-01-21T11:41:02.196Z,15.30
2019-01-21T11:43:06.382Z,16.00
2019-01-21T11:44:06.629Z,15.60
2019-01-21T11:45:59.755Z,16.90
2019-01-21T11:47:00.001Z,17.20
2019-01-21T11:49:04.174Z,16.30
2019-01-21T11:50:10.360Z,16.40
2019-01-21T11:52:08.618Z,15.10
2019-01-21T11:53:08.867Z,15.40
2019-01-21T11:55:13.050Z,15.70
2019-01-21T11:56:13.299Z,16.10
2019-01-21T11:58:17.491Z,15.30
2019-01-21T11:59:17.738Z,15.50
2019-01-21T12:01:21.934Z,16.50
2019-01-21T12:02:22.184Z,16.10
2019-01-21T12:04:26.366Z,17.00
2019-01-21T12:05:26.615Z,17.30
2019-01-21T12:07:31.828Z,17.70
2019-01-21T12:08:32.071Z,17.10
2019-01-21T12:10:36.243Z,17.60
2019-01-21T12:11:36.493Z,17.10
2019-01-21T12:13:40.687Z,15.90
2019-01-21T12:14:40.934Z,16.30
2019-01-21T12:16:34.037Z,15.80
2019-01-21T12:17:34.287Z,17.40
2019-01-21T12:19:38.474Z,17.10
2019-01-21T12:20:38.736Z,17.80
2019-01-21T12:22:42.933Z,17.50
2019-01-21T12:23:43.183Z,16.70
2019-01-21T12:25:47.449Z,17.70
2019-01-21T12:26:47.636Z,17.50
2019-01-21T12:28:51.908Z,17.70
2019-01-21T12:29:52.105Z,17.70
2019-01-21T12:31:57.292Z,28.90
2019-01-21T12:32:57.540Z,17.90
2019-01-21T12:35:01.728Z,17.90
2019-01-21T12:36:02.055Z,17.40
2019-01-21T12:38:06.453Z,105.60
2019-01-21T12:39:06.700Z,47.80
2019-01-21T12:41:10.947Z,74.70
2019-01-21T12:42:11.222Z,16.90
2019-01-21T12:44:15.500Z,21.20
2019-01-21T12:45:15.754Z,18.30
2019-01-21T12:47:19.932Z,17.40
2019-01-21T12:48:20.178Z,17.30
2019-01-21T12:50:24.382Z,17.40
2019-01-21T12:51:24.672Z,16.80
2019-01-21T12:53:28.869Z,18.90
2019-01-21T12:54:29.127Z,42.90
2019-01-21T12:56:23.250Z,17.00
2019-01-21T12:57:23.500Z,17.20
2019-01-21T12:59:27.775Z,15.80
2019-01-21T13:00:28.075Z,15.40
2019-01-21T13:02:32.284Z,15.40
2019-01-21T13:03:32.521Z,14.10
2019-01-21T13:05:36.766Z,15.60
2019-01-21T13:06:37.030Z,15.20
2019-01-21T13:08:41.227Z,16.40
2019-01-21T13:09:41.507Z,16.40
2019-01-21T13:11:45.674Z,16.10
2019-01-21T13:12:45.974Z,16.00
2019-01-21T13:14:50.167Z,16.20
2019-01-21T13:15:50.457Z,17.70
2019-01-21T13:17:54.624Z,16.10
2019-01-21T13:18:54.873Z,16.20
2019-01-21T13:20:59.075Z,18.00
2019-01-21T13:21:59.322Z,19.30
2019-01-21T13:24:03.509Z,19.20
2019-01-21T13:25:03.757Z,18.50
2019-01-21T13:27:07.931Z,23.00
2019-01-21T13:28:08.177Z,24.40
2019-01-21T13:30:12.366Z,17.30
2019-01-21T13:31:12.613Z,16.80
2019-01-21T13:33:16.783Z,17.50
2019-01-21T13:34:17.030Z,16.20
2019-01-21T13:36:10.147Z,17.10
2019-01-21T13:37:10.397Z,16.90
2019-01-21T13:39:14.611Z,17.10
2019-01-21T13:40:14.858Z,17.20
2019-01-21T13:42:19.022Z,17.20
2019-01-21T13:43:19.266Z,16.60
2019-01-21T13:45:23.451Z,17.50
2019-01-21T13:46:23.700Z,17.60
2019-01-21T13:48:27.866Z,16.50
2019-01-21T13:49:28.110Z,17.20
2019-01-21T13:51:32.388Z,17.20
2019-01-21T13:52:32.655Z,18.10
2019-01-21T13:54:36.894Z,17.30
2019-01-21T13:55:37.170Z,18.80
2019-01-21T13:57:41.336Z,18.30
2019-01-21T13:58:41.577Z,17.90
2019-01-21T14:00:45.781Z,17.50
2019-01-21T14:01:46.028Z,18.70
2019-01-21T14:03:50.198Z,19.00
2019-01-21T14:04:50.441Z,20.80
2019-01-21T14:06:54.782Z,18.70
2019-01-21T14:07:55.031Z,18.70
2019-01-21T14:10:00.246Z,17.30
2019-01-21T14:11:00.478Z,20.00
2019-01-21T14:13:04.665Z,18.30
2019-01-21T14:14:04.908Z,18.60
2019-01-21T14:15:58.090Z,17.40
2019-01-21T14:16:58.371Z,16.00
2019-01-21T14:19:02.572Z,19.20
2019-01-21T14:20:02.810Z,17.50
2019-01-21T14:22:07.074Z,16.80
2019-01-21T14:23:07.316Z,18.30
2019-01-21T14:25:11.645Z,18.10
2019-01-21T14:26:13.068Z,18.10
2019-01-21T14:28:16.095Z,18.50
2019-01-21T14:29:16.546Z,18.70
2019-01-21T14:31:20.579Z,19.30
2019-01-21T14:32:20.947Z,19.40
2019-01-21T14:34:25.122Z,18.90
2019-01-21T14:35:25.372Z,18.90
2019-01-21T14:37:29.560Z,19.10
2019-01-21T14:38:29.806Z,20.20
2019-01-21T14:40:33.964Z,18.60
2019-01-21T14:41:34.202Z,20.70
2019-01-21T14:43:38.413Z,17.90
2019-01-21T14:44:38.632Z,18.10
2019-01-21T14:46:31.719Z,19.40
2019-01-21T14:47:31.969Z,20.20
2019-01-21T14:49:36.149Z,18.60
2019-01-21T14:50:36.396Z,19.80
2019-01-21T14:52:40.612Z,18.90
2019-01-21T14:53:40.832Z,20.10
2019-01-21T14:55:45.995Z,19.60
2019-01-21T14:56:46.250Z,20.30
2019-01-21T14:58:50.421Z,19.70
2019-01-21T14:59:51.792Z,20.80
2019-01-21T15:01:54.810Z,20.40
2019-01-21T15:02:55.072Z,21.30
2019-01-21T15:04:59.242Z,20.20
2019-01-21T15:05:59.477Z,19.00
2019-01-21T15:08:03.656Z,19.20
2019-01-21T15:09:03.947Z,19.50
2019-01-21T15:11:08.048Z,19.80
2019-01-21T15:12:08.303Z,19.70
2019-01-21T15:14:12.466Z,18.80
2019-01-21T15:15:12.717Z,20.00
2019-01-21T15:17:16.921Z,21.80
2019-01-21T15:18:17.157Z,21.20
2019-01-21T15:20:21.375Z,20.70
2019-01-21T15:21:21.606Z,19.30
2019-01-21T15:23:25.773Z,20.50
2019-01-21T15:24:25.992Z,19.50
2019-01-21T15:26:19.031Z,18.20
2019-01-21T15:27:19.333Z,18.10
2019-01-21T15:29:23.513Z,21.20
2019-01-21T15:30:23.695Z,20.70
2019-01-21T15:32:27.847Z,22.50
2019-01-21T15:33:28.076Z,23.10
2019-01-21T15:35:33.288Z,24.00
2019-01-21T15:36:33.504Z,24.30
2019-01-21T15:38:37.858Z,22.90
2019-01-21T15:39:38.023Z,24.80
2019-01-21T15:41:42.055Z,24.20
2019-01-21T15:42:42.324Z,23.60
2019-01-21T15:44:46.498Z,25.00
2019-01-21T15:45:50.755Z,27.70
2019-01-21T15:47:50.867Z,36.10
2019-01-21T15:48:51.090Z,32.10
2019-01-21T15:50:55.255Z,85.30
2019-01-21T15:51:55.485Z,44.60
2019-01-21T15:53:59.669Z,42.10
2019-01-21T15:54:59.896Z,37.40
2019-01-21T15:57:05.061Z,23.50
2019-01-21T15:58:05.297Z,29.30
2019-01-21T16:00:09.474Z,26.90
2019-01-21T16:01:09.710Z,28.70
2019-01-21T16:03:13.869Z,32.40
2019-01-21T16:04:14.096Z,38.00
2019-01-21T16:06:07.193Z,36.80
2019-01-21T16:07:07.429Z,32.70
2019-01-21T16:09:11.593Z,32.60
2019-01-21T16:10:11.831Z,30.40
2019-01-21T16:12:15.984Z,29.30
2019-01-21T16:13:16.220Z,27.50
2019-01-21T16:15:20.396Z,27.10
2019-01-21T16:16:20.631Z,28.20
2019-01-21T16:18:24.778Z,27.90
2019-01-21T16:19:25.013Z,25.80
2019-01-21T16:21:30.196Z,27.80
2019-01-21T16:22:30.433Z,25.20
2019-01-21T16:24:34.630Z,25.10
2019-01-21T16:25:34.843Z,23.90
2019-01-21T16:27:38.992Z,26.90
2019-01-21T16:28:39.229Z,28.10
2019-01-21T16:30:43.430Z,24.90
2019-01-21T16:31:43.622Z,26.10
2019-01-21T16:33:47.768Z,26.70
2019-01-21T16:34:47.998Z,27.20
2019-01-21T16:36:52.198Z,26.30
2019-01-21T16:37:52.404Z,29.70
2019-01-21T16:39:56.572Z,30.30
2019-01-21T16:40:56.810Z,29.50
2019-01-21T16:43:00.950Z,30.00
2019-01-21T16:44:01.195Z,29.90
2019-01-21T16:45:54.288Z,27.90
2019-01-21T16:46:54.523Z,26.50
2019-01-21T16:48:58.674Z,27.30
2019-01-21T16:49:58.913Z,28.20
2019-01-21T16:52:03.081Z,26.40
2019-01-21T16:53:03.318Z,26.60
2019-01-21T16:55:07.486Z,27.10
2019-01-21T16:56:07.720Z,25.20
2019-01-21T16:58:11.865Z,29.20
2019-01-21T16:59:12.099Z,24.60
2019-01-21T17:01:16.263Z,26.00
2019-01-21T17:02:16.498Z,30.90
2019-01-21T17:04:20.640Z,40.20
2019-01-21T17:05:20.874Z,39.30
2019-01-21T17:07:25.030Z,38.30
2019-01-21T17:08:25.276Z,40.90
2019-01-21T17:10:29.439Z,36.40
2019-01-21T17:11:29.669Z,42.00
2019-01-21T17:13:33.817Z,43.00
2019-01-21T17:14:34.051Z,38.30
2019-01-21T17:16:27.142Z,45.50
2019-01-21T17:17:27.381Z,47.80
2019-01-21T17:19:31.528Z,49.20
2019-01-21T17:20:31.756Z,44.30
2019-01-21T17:22:35.945Z,36.90
2019-01-21T17:23:36.154Z,42.90
2019-01-21T17:25:40.333Z,82.00
2019-01-21T17:26:40.562Z,70.80
2019-01-21T17:28:44.715Z,49.60
2019-01-21T17:29:44.937Z,51.80
2019-01-21T17:31:49.111Z,49.90
2019-01-21T17:32:49.352Z,34.20
2019-01-21T17:34:53.487Z,39.70
2019-01-21T17:35:53.719Z,35.30
2019-01-21T17:37:57.890Z,35.80
2019-01-21T17:38:58.125Z,38.70
2019-01-21T17:41:02.265Z,37.50
2019-01-21T17:42:02.508Z,44.30
2019-01-21T17:44:06.657Z,38.40
2019-01-21T17:45:06.890Z,35.10
2019-01-21T17:47:11.060Z,40.90
2019-01-21T17:48:11.277Z,39.40
2019-01-21T17:50:15.420Z,38.90
2019-01-21T17:51:15.654Z,36.40
2019-01-21T17:53:19.825Z,38.00
2019-01-21T17:54:20.059Z,37.60
2019-01-21T17:56:13.128Z,34.60
2019-01-21T17:57:13.361Z,34.30
2019-01-21T17:59:17.523Z,35.20
2019-01-21T18:00:17.762Z,34.40
2019-01-21T18:02:21.922Z,36.40
2019-01-21T18:03:22.156Z,36.80
2019-01-21T18:05:26.300Z,35.70
2019-01-21T18:06:26.529Z,35.80
2019-01-21T18:08:38.211Z,39.10
2019-01-21T18:09:30.878Z,38.50
2019-01-21T18:11:37.767Z,36.80
2019-01-21T18:12:35.291Z,36.80
2019-01-21T18:14:39.513Z,40.70
2019-01-21T18:15:41.025Z,44.40
2019-01-21T18:17:43.939Z,44.50
2019-01-21T18:18:44.261Z,51.90
2019-01-21T18:20:48.419Z,44.80
2019-01-21T18:21:48.652Z,43.90
2019-01-21T18:23:52.888Z,51.20
2019-01-21T18:24:53.148Z,60.10
2019-01-21T18:26:57.316Z,63.20
2019-01-21T18:27:57.655Z,60.30
2019-01-21T18:30:02.138Z,60.30
2019-01-21T18:31:02.106Z,47.60
2019-01-21T18:33:06.298Z,50.60
2019-01-21T18:34:06.590Z,52.60
2019-01-21T18:35:59.657Z,43.70
2019-01-21T18:36:59.932Z,46.40
2019-01-21T18:39:04.094Z,51.80
2019-01-21T18:40:04.362Z,41.80
2019-01-21T18:42:08.530Z,50.90
2019-01-21T18:43:08.761Z,50.70
2019-01-21T18:45:12.921Z,45.60
2019-01-21T18:46:13.161Z,52.40
2019-01-21T18:48:17.376Z,53.60
2019-01-21T18:49:22.800Z,60.90
2019-01-21T18:51:21.793Z,53.10
2019-01-21T18:52:22.054Z,49.60
2019-01-21T18:54:26.317Z,51.20
2019-01-21T18:55:26.541Z,51.70
2019-01-21T18:57:30.759Z,54.50
2019-01-21T18:58:30.972Z,48.20
2019-01-21T19:00:36.160Z,42.70
2019-01-21T19:01:36.379Z,46.70
2019-01-21T19:03:40.553Z,49.40
2019-01-21T19:04:40.769Z,47.50
2019-01-21T19:06:33.858Z,46.00
2019-01-21T19:07:34.086Z,48.20
2019-01-21T19:09:38.247Z,48.10
2019-01-21T19:10:38.478Z,47.20
2019-01-21T19:12:42.621Z,47.90
2019-01-21T19:13:42.869Z,50.10
2019-01-21T19:15:48.039Z,49.70
2019-01-21T19:16:48.283Z,49.60
2019-01-21T19:18:52.448Z,50.30
2019-01-21T19:19:52.685Z,51.40
2019-01-21T19:21:56.818Z,49.60
2019-01-21T19:22:57.055Z,48.60
2019-01-21T19:25:01.212Z,52.50
2019-01-21T19:26:01.450Z,51.80
2019-01-21T19:28:05.572Z,50.00
2019-01-21T19:29:05.808Z,48.80
2019-01-21T19:31:09.973Z,49.60
2019-01-21T19:32:10.197Z,46.70
2019-01-21T19:34:14.357Z,48.60
2019-01-21T19:35:14.590Z,48.70
2019-01-21T19:37:18.733Z,48.50
2019-01-21T19:38:18.968Z,46.20
2019-01-21T19:40:23.125Z,45.30
2019-01-21T19:41:23.364Z,45.70